Time;durP1;ratioP1;P1;durP2;ratioP2;P2;SDS_P1;SDS_P2;PMS_P1;PMS_P2;Temp;Humidity;BMP_temperature;BMP_pressure;BME280_temperature;BME280_humidity;BME280_pressure;Samples;Min_cycle;Max_cycle;Signal;HPM_P1;HPM_P2
2022/01/25 00:24:45;;;;;;;88.47;52.87;;;;;;;4.03;80.13;103186.47;5004317;28;20056;-82
2022/01/25 00:27:38;;;;;;;97.13;54.17;;;;;;;4.10;79.60;103207.34;5006239;28;20413;-83
2022/01/25 00:30:25;;;;;;;97.90;57.63;;;;;;;3.96;79.30;103170.84;5003946;28;20050;-84
2022/01/25 00:32:52;;;;;;;89.77;56.03;;;;;;;4.11;79.79;103201.22;5005812;28;20077;-83
2022/01/25 00:35:18;;;;;;;100.03;56.60;;;;;;;4.11;79.54;103198.59;5005661;28;20499;-83
2022/01/25 00:37:47;;;;;;;95.57;55.90;;;;;;;4.01;79.33;103177.72;5006918;28;20141;-83
2022/01/25 00:40:14;;;;;;;88.67;54.63;;;;;;;3.89;79.06;103149.06;5006082;28;20046;-83
2022/01/25 00:42:41;;;;;;;91.63;55.60;;;;;;;4.21;78.86;103200.97;4992892;28;20108;-82
2022/01/25 00:45:10;;;;;;;88.10;55.93;;;;;;;4.14;78.49;103207.25;5006413;28;20508;-83
2022/01/25 00:47:40;;;;;;;88.33;54.53;;;;;;;4.14;78.59;103193.25;5007292;28;20060;-82
2022/01/25 00:50:13;;;;;;;92.87;55.03;;;;;;;3.86;78.60;103157.03;5006365;28;20299;-83
2022/01/25 00:55:12;;;;;;;85.13;54.93;;;;;;;4.09;78.95;103205.63;5006705;28;20136;-84
2022/01/25 00:57:39;;;;;;;100.97;55.23;;;;;;;4.15;78.96;103213.38;4999503;28;20060;-83
2022/01/25 01:00:09;;;;;;;84.83;54.03;;;;;;;3.84;78.83;103158.81;5021902;28;20695;-83
2022/01/25 01:02:35;;;;;;;84.33;55.00;;;;;;;4.06;78.87;103196.91;5005453;28;20057;-83
2022/01/25 01:05:03;;;;;;;91.17;52.93;;;;;;;3.84;78.75;103158.81;5007281;28;20053;-83
2022/01/25 01:07:29;;;;;;;85.63;53.07;;;;;;;3.24;78.38;103046.16;5006408;28;20056;-83
2022/01/25 01:09:58;;;;;;;97.20;54.50;;;;;;;4.07;78.06;103177.59;5018256;28;20451;-82
2022/01/25 01:40:20;;;;;;;86.77;52.30;;;;;;;4.32;78.06;103198.13;5029313;28;20461;-83
2022/01/25 01:51:16;;;;;;;89.27;53.10;;;;;;;4.35;77.83;103186.69;5028692;28;20072;-81
2022/01/25 01:53:43;;;;;;;84.97;52.23;;;;;;;4.35;77.85;103178.78;5029256;28;20467;-81
2022/01/25 01:56:10;;;;;;;84.10;52.83;;;;;;;3.64;77.85;103067.22;5028548;28;20046;-83
2022/01/25 01:58:38;;;;;;;87.97;52.37;;;;;;;3.93;77.47;103107.81;5028426;28;20054;-84
2022/01/25 02:01:08;;;;;;;82.17;50.13;;;;;;;4.57;76.96;103201.09;5027217;28;20254;-84
2022/01/25 02:03:35;;;;;;;84.70;53.57;;;;;;;4.28;76.44;103150.00;5027323;28;20171;-83
2022/01/25 02:06:02;;;;;;;85.90;50.73;;;;;;;4.32;76.41;103161.31;5028793;28;20038;-83
2022/01/25 02:08:29;;;;;;;79.50;50.07;;;;;;;4.48;76.82;103185.50;5029095;28;20053;-83
2022/01/25 02:10:56;;;;;;;81.00;49.03;;;;;;;4.50;75.98;103192.47;5006701;28;20424;-82
2022/01/25 02:13:22;;;;;;;80.57;51.17;;;;;;;4.37;75.99;103162.09;5004391;28;20054;-84
2022/01/25 02:15:50;;;;;;;85.33;49.17;;;;;;;4.42;75.75;103168.09;5004383;28;20139;-85
2022/01/25 02:23:50;;;;;;;78.23;50.10;;;;;;;4.62;75.25;103182.56;4989449;28;20054;-83
2022/01/25 02:26:17;;;;;;;73.23;47.27;;;;;;;4.58;75.33;103150.19;5004007;28;20078;-84
2022/01/25 02:28:45;;;;;;;77.33;48.60;;;;;;;4.50;75.28;103134.59;4988471;28;20142;-82
2022/01/25 02:31:15;;;;;;;74.10;45.77;;;;;;;4.50;74.83;103139.84;5003756;28;20548;-84
2022/01/25 02:33:43;;;;;;;81.53;48.60;;;;;;;4.47;75.12;103129.41;5003888;28;20058;-83
2022/01/25 02:36:22;;;;;;;76.50;47.33;;;;;;;4.22;75.10;103099.28;4987514;28;20519;-83
2022/01/25 02:38:48;;;;;;;76.83;48.17;;;;;;;4.75;74.62;103175.25;4987465;28;20520;-84
2022/01/25 02:41:15;;;;;;;78.00;48.40;;;;;;;4.70;74.26;103162.22;5003665;28;20381;-82
2022/01/25 02:43:45;;;;;;;75.40;48.20;;;;;;;4.50;74.07;103116.19;5003816;28;20141;-83
2022/01/25 02:48:59;;;;;;;71.27;46.80;;;;;;;4.81;74.05;103154.94;4988288;28;20351;-84
2022/01/25 02:51:37;;;;;;;72.97;45.83;;;;;;;4.72;73.90;103144.63;4988749;28;20133;-82
2022/01/25 02:54:07;;;;;;;66.60;44.80;;;;;;;4.61;73.75;103125.56;5003436;28;20054;-83
2022/01/25 02:56:36;;;;;;;67.37;45.17;;;;;;;4.46;74.09;103122.41;4988553;28;20081;-82
2022/01/25 02:59:05;;;;;;;72.37;45.37;;;;;;;4.69;73.94;103161.34;4988105;28;20473;-84
2022/01/25 03:01:34;;;;;;;72.50;44.97;;;;;;;4.06;73.43;103052.31;4987206;28;20061;-82
2022/01/25 03:04:00;;;;;;;73.23;45.10;;;;;;;4.26;73.91;103098.34;4988600;28;20141;-84
2022/01/25 03:06:27;;;;;;;68.23;44.30;;;;;;;4.58;73.90;103163.34;4988239;28;20056;-82
2022/01/25 03:08:54;;;;;;;65.70;43.63;;;;;;;4.36;73.74;103120.88;5003713;28;20477;-82
2022/01/25 03:11:23;;;;;;;70.97;43.80;;;;;;;4.72;73.34;103150.75;5007833;28;20072;-82
2022/01/25 03:13:55;;;;;;;69.80;44.00;;;;;;;4.47;73.34;103118.03;5006652;28;20058;-82
2022/01/25 03:22:00;;;;;;;73.93;45.20;;;;;;;4.56;73.75;103151.13;5007551;28;20054;-83
2022/01/25 03:24:27;;;;;;;65.80;43.83;;;;;;;4.29;73.86;103109.63;5006652;28;20131;-82
2022/01/25 03:26:54;;;;;;;70.50;44.43;;;;;;;4.53;73.76;103146.81;5006769;28;20081;-82
2022/01/25 03:29:21;;;;;;;65.23;42.30;;;;;;;4.58;73.66;103136.19;5009261;28;20184;-83
2022/01/25 03:31:48;;;;;;;66.63;44.03;;;;;;;4.50;73.75;103141.63;5009578;28;20050;-84
2022/01/25 03:34:18;;;;;;;68.33;43.40;;;;;;;3.28;73.71;102932.31;5008717;28;20455;-84
2022/01/25 03:36:46;;;;;;;67.47;43.50;;;;;;;4.65;73.09;103136.00;5005920;28;20078;-83
2022/01/25 03:39:13;;;;;;;61.97;41.67;;;;;;;4.44;73.45;103108.44;5006298;28;20347;-83
2022/01/25 03:41:40;;;;;;;66.20;43.10;;;;;;;4.34;73.32;103113.94;5007372;28;20046;-82
2022/01/25 03:44:07;;;;;;;66.87;42.20;;;;;;;4.43;73.47;103124.25;5007053;28;20046;-82
2022/01/25 03:46:55;;;;;;;63.27;42.80;;;;;;;4.36;73.28;103120.88;5006970;28;20058;-83
2022/01/25 03:52:07;;;;;;;64.70;41.23;;;;;;;4.38;73.18;103098.03;5007136;28;20042;-82
2022/01/25 03:54:35;;;;;;;66.20;41.13;;;;;;;4.61;72.83;103123.84;5006016;28;20060;-83
2022/01/25 03:57:02;;;;;;;61.27;40.20;;;;;;;4.12;72.38;103056.56;5006133;28;20137;-84
2022/01/25 03:59:29;;;;;;;59.27;38.50;;;;;;;3.98;72.87;103046.38;5006650;28;20149;-82
2022/01/25 04:01:56;;;;;;;63.73;40.33;;;;;;;4.14;74.18;103099.47;5006105;28;20058;-83
2022/01/25 04:04:30;;;;;;;65.10;41.60;;;;;;;4.25;74.08;103130.81;5007054;28;20129;-83
2022/01/25 04:06:57;;;;;;;66.17;42.87;;;;;;;4.25;73.96;103141.31;5006905;28;20052;-83
2022/01/25 04:09:24;;;;;;;71.07;43.77;;;;;;;4.33;74.06;103133.25;5005752;28;20139;-83
2022/01/25 04:11:50;;;;;;;72.13;44.37;;;;;;;4.20;73.98;103103.72;5005911;28;20048;-83
2022/01/25 04:14:17;;;;;;;70.33;44.60;;;;;;;4.40;74.14;103130.44;5005416;28;20084;-83
2022/01/25 04:16:54;;;;;;;75.10;45.37;;;;;;;4.37;74.34;103127.91;5005637;28;20702;-83
2022/01/25 04:25:06;;;;;;;77.10;44.33;;;;;;;4.32;73.43;103095.56;4994226;28;20054;-83
2022/01/25 04:27:34;;;;;;;66.17;40.90;;;;;;;4.24;73.92;103090.47;5006864;28;20054;-82
2022/01/25 04:30:01;;;;;;;72.20;42.77;;;;;;;4.22;73.32;103083.50;5005491;28;20053;-83
2022/01/25 04:32:42;;;;;;;73.30;43.37;;;;;;;4.53;73.11;103106.50;5005922;28;20150;-82
2022/01/25 05:02:10;;;;;;;68.47;41.20;;;;;;;3.98;74.40;103020.09;5007449;28;20526;-82
2022/01/25 05:04:44;;;;;;;62.27;42.43;;;;;;;4.49;74.26;103092.53;5005255;28;20049;-82
2022/01/25 05:09:58;;;;;;;70.93;41.53;;;;;;;4.48;74.22;103094.28;5006597;28;20281;-83
2022/01/25 05:18:17;;;;;;;70.57;41.87;;;;;;;4.45;74.15;103096.16;5010177;28;20046;-83
2022/01/25 05:23:29;;;;;;;66.47;42.03;;;;;;;4.29;74.42;103085.09;5009594;28;20132;-82
2022/01/25 05:25:56;;;;;;;74.33;43.07;;;;;;;4.28;74.07;103084.25;5009879;28;20073;-82
2022/01/25 05:28:25;;;;;;;66.30;42.50;;;;;;;4.38;74.48;103095.41;5008258;28;20144;-83
2022/01/25 05:30:52;;;;;;;59.10;38.97;;;;;;;4.56;74.09;103111.66;5008416;28;20069;-82
2022/01/25 05:33:19;;;;;;;64.10;42.17;;;;;;;4.51;73.95;103106.50;5008209;28;20445;-82
2022/01/25 05:35:45;;;;;;;66.27;40.73;;;;;;;4.25;74.17;103065.91;5009693;28;20496;-82
2022/01/25 05:38:12;;;;;;;63.53;42.70;;;;;;;4.44;74.02;103108.44;5009335;28;20046;-80
2022/01/25 05:40:44;;;;;;;66.73;41.30;;;;;;;4.26;74.65;103087.81;5009862;28;20184;-83
2022/01/25 05:48:51;;;;;;;67.07;42.17;;;;;;;4.29;75.13;103104.38;4948094;28;20204;-83
2022/01/25 05:51:18;;;;;;;70.90;42.97;;;;;;;4.26;75.63;103106.22;4932272;29;20047;-83
2022/01/25 05:53:44;;;;;;;67.47;41.43;;;;;;;4.22;75.43;103086.13;4977020;28;20396;-84
2022/01/25 05:56:11;;;;;;;65.60;41.73;;;;;;;4.23;75.00;103080.84;5007810;28;20571;-83
2022/01/25 05:58:37;;;;;;;65.37;40.40;;;;;;;4.36;75.09;103099.84;5009225;28;20133;-83
2022/01/25 06:01:04;;;;;;;68.70;42.83;;;;;;;4.07;75.25;103050.53;5008266;28;20046;-84
2022/01/25 06:03:31;;;;;;;74.80;44.97;;;;;;;4.09;75.24;103066.28;5008848;28;20065;-82
2022/01/25 06:05:58;;;;;;;75.80;43.93;;;;;;;4.32;74.77;103082.44;5008355;28;20061;-82
2022/01/25 06:08:24;;;;;;;61.90;40.97;;;;;;;3.40;74.69;102921.56;5008920;28;20116;-81
2022/01/25 06:10:51;;;;;;;79.43;46.13;;;;;;;4.48;74.69;103094.28;4992322;28;20181;-83
2022/01/25 06:13:18;;;;;;;78.93;46.73;;;;;;;4.59;74.35;103096.69;5014610;28;20080;-81
2022/01/25 06:15:44;;;;;;;77.73;46.90;;;;;;;4.40;74.87;103079.63;5006914;28;20149;-83
2022/01/25 06:18:11;;;;;;;82.10;47.23;;;;;;;3.93;74.76;103000.94;5007992;28;20411;-83
2022/01/25 06:20:40;;;;;;;81.27;47.70;;;;;;;4.45;75.00;103106.66;5006843;28;20053;-83
2022/01/25 06:23:06;;;;;;;77.60;45.50;;;;;;;4.16;75.29;103073.16;5006372;28;20050;-84
2022/01/25 06:25:34;;;;;;;74.70;47.13;;;;;;;4.38;75.73;103113.81;5006131;28;20140;-83
2022/01/25 06:28:01;;;;;;;71.07;44.83;;;;;;;4.37;75.44;103112.13;5006686;28;20049;-83
2022/01/25 06:30:28;;;;;;;74.30;45.17;;;;;;;4.14;75.24;103072.31;5006125;28;20061;-84
2022/01/25 06:32:55;;;;;;;74.30;45.00;;;;;;;4.44;75.37;103118.06;5007813;28;20500;-84
2022/01/25 06:35:23;;;;;;;80.70;46.13;;;;;;;4.18;75.62;103080.09;5007706;28;20066;-84
2022/01/25 06:37:51;;;;;;;69.67;43.73;;;;;;;3.98;75.19;103030.59;5007041;28;20140;-84
2022/01/25 06:40:18;;;;;;;77.20;44.40;;;;;;;4.47;74.86;103118.88;5010251;28;20149;-83
2022/01/25 06:42:44;;;;;;;77.13;45.40;;;;;;;4.08;74.80;103047.03;5014203;28;20046;-82
2022/01/25 06:45:15;;;;;;;77.03;44.43;;;;;;;4.54;74.72;103111.72;5010598;28;20092;-84
2022/01/25 06:47:43;;;;;;;71.53;44.30;;;;;;;4.37;74.50;103090.19;5005860;28;20145;-83
2022/01/25 06:50:11;;;;;;;71.40;44.87;;;;;;;3.51;74.83;102935.31;5005920;28;20136;-84
2022/01/25 06:52:40;;;;;;;65.80;42.30;;;;;;;4.39;74.96;103105.03;5007096;28;20137;-81
2022/01/25 06:55:19;;;;;;;69.93;44.40;;;;;;;4.23;75.48;103082.63;5006067;28;20046;-82
2022/01/25 06:57:46;;;;;;;62.93;42.67;;;;;;;3.90;74.87;103016.75;5006000;28;20137;-82
2022/01/25 07:00:20;;;;;;;79.27;44.90;;;;;;;4.19;75.28;103066.03;5005625;28;20050;-83
2022/01/25 07:02:47;;;;;;;70.73;41.80;;;;;;;4.33;75.24;103088.53;5005670;28;20500;-80
2022/01/25 07:05:14;;;;;;;77.80;45.87;;;;;;;4.55;75.12;103110.81;5005970;28;20050;-82
2022/01/25 07:07:42;;;;;;;73.63;46.50;;;;;;;4.10;75.01;103049.59;5005483;28;20269;-83
2022/01/25 07:10:09;;;;;;;68.87;44.57;;;;;;;4.42;75.47;103099.72;5002857;28;20085;-83
2022/01/25 07:12:41;;;;;;;81.60;44.43;;;;;;;3.90;74.78;103027.28;4986040;28;20053;-82
2022/01/25 07:15:08;;;;;;;65.93;42.67;;;;;;;4.29;74.38;103074.59;4986913;28;20493;-83
2022/01/25 07:17:35;;;;;;;69.20;43.57;;;;;;;4.47;75.19;103124.16;5003121;28;20137;-83
2022/01/25 07:20:05;;;;;;;74.93;44.00;;;;;;;4.50;75.56;103117.94;4986699;28;20137;-82
2022/01/25 07:22:33;;;;;;;71.90;44.27;;;;;;;4.46;75.32;103111.03;4986811;28;20055;-83
2022/01/25 07:25:00;;;;;;;74.80;45.30;;;;;;;4.38;75.12;103090.16;5002975;28;20046;-82
2022/01/25 07:27:27;;;;;;;67.13;43.53;;;;;;;4.52;74.94;103115.28;5002817;28;20137;-84
2022/01/25 07:29:54;;;;;;;73.07;42.50;;;;;;;4.44;74.80;103094.41;5003508;28;20164;-83
2022/01/25 07:32:20;;;;;;;68.77;41.27;;;;;;;4.59;75.02;103120.38;4986694;28;20477;-81
2022/01/25 07:34:49;;;;;;;69.23;44.20;;;;;;;4.53;74.93;103130.16;5002107;28;20134;-82
2022/01/25 07:37:18;;;;;;;71.80;43.13;;;;;;;4.27;75.70;103089.53;5005741;28;20082;-81
2022/01/25 07:39:47;;;;;;;72.67;45.20;;;;;;;4.44;74.76;103110.19;5002817;28;20223;-81
2022/01/25 07:42:16;;;;;;;67.07;46.10;;;;;;;4.42;75.30;103114.63;5003128;28;20050;-80
2022/01/25 07:44:44;;;;;;;69.37;43.97;;;;;;;4.50;74.95;103120.56;5002724;28;20058;-82
2022/01/25 07:47:12;;;;;;;72.90;43.33;;;;;;;4.36;74.92;103104.25;5002652;28;20050;-82
2022/01/25 07:49:41;;;;;;;76.30;44.77;;;;;;;4.34;74.30;103075.34;4986612;28;20062;-80
2022/01/25 07:52:13;;;;;;;79.77;44.27;;;;;;;4.22;74.85;103079.16;4988356;28;20090;-83
2022/01/25 07:54:42;;;;;;;72.37;42.50;;;;;;;4.39;74.83;103094.50;5002969;28;20081;-83
2022/01/25 07:57:08;;;;;;;72.20;42.73;;;;;;;4.41;75.08;103091.84;4986352;28;20050;-84
2022/01/25 07:59:36;;;;;;;85.20;44.87;;;;;;;4.48;75.02;103115.34;5002700;28;20054;-83
2022/01/25 08:02:03;;;;;;;71.27;43.03;;;;;;;4.41;74.69;103103.22;5002522;28;20559;-84
2022/01/25 08:04:44;;;;;;;59.70;39.27;;;;;;;3.78;74.13;102980.25;4986620;28;20058;-84
2022/01/25 08:07:20;;;;;;;60.47;38.37;;;;;;;4.03;74.27;103036.63;4972433;28;20507;-83
2022/01/25 08:10:01;;;;;;;69.17;43.20;;;;;;;4.22;74.71;103073.88;5004451;28;20068;-82
2022/01/25 08:12:38;;;;;;;69.60;41.30;;;;;;;4.29;75.29;103095.63;5006535;28;20049;-84
2022/01/25 08:15:18;;;;;;;67.43;42.85;;;;;;;4.47;75.67;103123.28;5002884;28;20162;-83
2022/01/25 08:18:04;;;;;;;69.60;42.43;;;;;;;4.30;75.41;103078.97;4951319;28;20047;-83
2022/01/25 08:20:32;;;;;;;73.80;44.37;;;;;;;3.76;74.48;102971.53;4965277;28;20141;-82
2022/01/25 08:23:12;;;;;;;64.70;42.03;;;;;;;4.51;74.44;103106.50;4948720;28;20047;-81
2022/01/25 08:25:47;;;;;;;66.97;39.60;;;;;;;4.46;74.59;103097.88;4965322;28;20050;-83
2022/01/25 08:28:34;;;;;;;66.90;41.40;;;;;;;4.42;75.05;103081.31;4941423;28;20560;-84
2022/01/25 08:31:06;;;;;;;;;;;;;;;4.57;74.48;103102.91;4949064;28;20281;-82
2022/01/25 08:33:49;;;;;;;66.37;41.67;;;;;;;4.06;74.38;103023.41;4942944;28;19922;-83
2022/01/25 08:36:35;;;;;;;70.60;41.23;;;;;;;4.56;74.65;103111.66;4950041;28;20151;-83
2022/01/25 08:39:08;;;;;;;72.00;42.33;;;;;;;4.53;74.27;103098.59;4948727;28;20394;-83
2022/01/25 08:41:53;;;;;;;67.20;40.80;;;;;;;4.66;74.23;103118.44;4957676;28;20213;-82
2022/01/25 08:44:33;;;;;;;68.60;40.80;;;;;;;4.55;73.14;103091.53;4950003;28;20059;-83
2022/01/25 08:47:05;;;;;;;67.13;41.07;;;;;;;4.54;74.20;103106.47;4952680;28;20058;-83
2022/01/25 08:49:46;;;;;;;65.03;39.33;;;;;;;4.61;74.38;103123.84;4953147;28;20302;-83
2022/01/25 08:52:29;;;;;;;64.37;41.00;;;;;;;4.57;73.87;103087.97;4962120;28;20043;-83
2022/01/25 08:55:10;;;;;;;66.60;41.50;;;;;;;3.87;74.05;102974.78;4976876;28;20085;-82
2022/01/25 08:57:45;;;;;;;69.23;41.70;;;;;;;4.36;73.85;103044.63;4990761;28;20136;-82
2022/01/25 09:00:28;;;;;;;64.70;41.33;;;;;;;4.26;73.60;103024.69;4989811;28;20050;-84
2022/01/25 09:03:04;;;;;;;70.00;40.10;;;;;;;4.78;73.19;103117.28;4988888;28;20149;-84
2022/01/25 09:05:32;;;;;;;73.60;42.77;;;;;;;4.77;73.50;103126.09;4988494;28;20444;-82
2022/01/25 09:08:00;;;;;;;68.40;41.30;;;;;;;4.80;73.59;103131.28;4988854;28;20046;-83
2022/01/25 09:10:28;;;;;;;68.03;41.20;;;;;;;4.81;73.20;103133.88;5003471;28;20499;-81
2022/01/25 09:12:54;;;;;;;69.67;40.20;;;;;;;4.82;73.45;103126.84;5008297;28;20049;-83
2022/01/25 09:15:22;;;;;;;74.13;41.37;;;;;;;4.78;73.34;103128.69;5010054;28;20046;-83
2022/01/25 09:17:50;;;;;;;69.87;42.57;;;;;;;4.74;73.52;103126.16;5008849;28;20436;-82
2022/01/25 09:20:17;;;;;;;69.03;42.10;;;;;;;4.16;73.54;103023.19;5008952;28;20408;-82
2022/01/25 09:22:44;;;;;;;72.70;41.73;;;;;;;4.83;73.27;103121.53;5008631;28;20507;-82
2022/01/25 09:25:26;;;;;;;72.13;41.30;;;;;;;4.83;73.69;103125.91;5008872;28;20623;-80
2022/01/25 09:27:53;;;;;;;64.20;40.97;;;;;;;4.85;73.66;103119.72;5008703;28;20331;-80
2022/01/25 09:30:23;;;;;;;68.93;42.50;;;;;;;4.76;73.63;103095.38;4992442;28;20064;-81
2022/01/25 09:32:50;;;;;;;69.07;41.87;;;;;;;4.48;73.57;103049.56;5008536;28;20137;-83
2022/01/25 09:35:18;;;;;;;68.53;41.33;;;;;;;4.96;73.38;103124.72;5009533;28;20209;-83
2022/01/25 09:37:50;;;;;;;76.40;44.23;;;;;;;4.98;73.37;103108.91;5008266;28;20503;-83
2022/01/25 09:40:20;;;;;;;75.33;42.37;;;;;;;5.05;73.22;103110.44;5008545;28;20062;-83
2022/01/25 09:42:51;;;;;;;66.57;41.23;;;;;;;5.03;72.38;103102.63;5009398;28;20408;-82
2022/01/25 09:45:19;;;;;;;70.53;44.40;;;;;;;4.92;73.09;103097.59;5008111;28;20046;-82
2022/01/25 09:47:46;;;;;;;67.07;40.00;;;;;;;3.79;73.11;102903.16;5008054;28;20466;-82
2022/01/25 09:50:14;;;;;;;75.90;43.03;;;;;;;4.79;72.71;103080.41;5008369;28;20272;-82
2022/01/25 09:52:42;;;;;;;68.23;42.97;;;;;;;4.34;72.99;103001.69;5008392;28;20145;-83
2022/01/25 09:55:12;;;;;;;77.57;44.30;;;;;;;5.10;71.89;103113.84;5013208;28;20046;-83
2022/01/25 09:57:40;;;;;;;76.57;41.37;;;;;;;5.06;72.28;103117.47;5010758;28;20049;-83
2022/01/25 10:00:13;;;;;;;63.37;40.23;;;;;;;5.05;72.32;103113.97;5008200;28;20052;-83
2022/01/25 10:02:53;;;;;;;67.67;37.57;;;;;;;4.55;72.23;103033.66;5009298;28;20145;-83
2022/01/25 10:05:28;;;;;;;68.80;40.10;;;;;;;4.33;72.66;103002.63;5009424;28;20050;-83
2022/01/25 10:08:04;;;;;;;70.37;39.20;;;;;;;4.99;72.21;103110.63;5007987;28;20045;-83
2022/01/25 10:10:35;;;;;;;76.90;40.17;;;;;;;4.59;72.26;103032.69;5009311;28;20042;-83
2022/01/25 10:13:22;;;;;;;63.20;39.90;;;;;;;4.91;71.83;103097.66;5009724;28;20587;-83
2022/01/25 10:16:04;;;;;;;69.87;42.60;;;;;;;5.05;72.07;103113.97;5008051;28;20132;-83
2022/01/25 10:18:44;;;;;;;72.68;42.33;;;;;;;5.06;72.84;103107.78;5008938;28;20160;-81
2022/01/25 10:21:32;;;;;;;68.47;39.37;;;;;;;5.18;71.91;103096.09;5005718;28;20133;-84
2022/01/25 10:24:14;;;;;;;70.80;40.77;;;;;;;5.19;72.44;103094.31;5005740;28;20129;-83
2022/01/25 10:26:53;;;;;;;79.13;43.20;;;;;;;5.24;72.03;103090.66;5006019;28;20046;-82
2022/01/25 10:29:32;;;;;;;75.40;40.90;;;;;;;5.02;72.11;103058.75;5006190;28;20050;-83
2022/01/25 10:32:05;;;;;;;74.20;41.63;;;;;;;4.74;72.08;103008.59;5007714;28;20065;-82
2022/01/25 10:34:44;;;;;;;70.93;39.17;;;;;;;4.78;71.64;103012.91;5007060;28;20053;-84
2022/01/25 10:37:13;;;;;;;67.43;38.90;;;;;;;5.17;71.71;103057.50;5007309;28;20217;-83
2022/01/25 10:39:42;;;;;;;69.37;40.60;;;;;;;5.19;71.60;103050.41;5007241;28;20058;-85
2022/01/25 10:42:11;;;;;;;73.37;40.57;;;;;;;5.44;71.28;103065.53;5006943;28;20447;-83
2022/01/25 10:44:50;;;;;;;63.80;38.90;;;;;;;5.36;70.79;103031.50;5006662;28;20454;-82
2022/01/25 10:47:45;;;;;;;69.97;39.57;;;;;;;4.83;70.64;102934.69;5006939;28;20081;-84
2022/01/25 10:50:16;;;;;;;68.43;38.33;;;;;;;5.43;70.34;103016.38;5005624;28;20057;-83
2022/01/25 10:52:45;;;;;;;62.08;36.35;;;;;;;5.53;70.12;103037.16;5009040;28;20046;-83
2022/01/25 10:55:13;;;;;;;68.87;37.83;;;;;;;5.44;70.43;103031.31;5007445;28;20054;-83
2022/01/25 10:57:40;;;;;;;69.20;40.03;;;;;;;5.07;71.00;102961.19;5006821;28;20054;-83
2022/01/25 11:00:32;;;;;;;72.10;38.63;;;;;;;5.61;70.75;103031.66;5007471;28;20060;-84
2022/01/25 11:03:01;;;;;;;76.87;41.10;;;;;;;5.66;70.67;103016.59;5006144;28;20068;-82
2022/01/25 11:05:32;;;;;;;66.55;38.40;;;;;;;5.80;69.77;103016.16;5003953;28;20530;-83
2022/01/25 11:08:14;;;;;;;68.75;39.60;;;;;;;5.89;69.27;103015.00;5005784;28;20046;-83
2022/01/25 11:10:49;;;;;;;67.30;38.53;;;;;;;4.76;69.04;102808.56;5007296;28;20553;-83
2022/01/25 11:15:58;;;;;;;62.00;35.83;;;;;;;5.66;68.53;102942.78;5007726;28;20405;-83
2022/01/25 11:18:25;;;;;;;60.27;36.60;;;;;;;6.19;68.09;103006.19;5006711;28;20116;-83
2022/01/25 11:20:56;;;;;;;67.97;37.60;;;;;;;5.89;67.60;102931.50;5006564;28;20046;-83
2022/01/25 11:23:23;;;;;;;59.03;35.80;;;;;;;5.64;67.99;102910.34;5006320;28;20084;-82
2022/01/25 11:25:51;;;;;;;70.50;38.17;;;;;;;6.15;67.64;103001.91;5006419;28;20050;-83
2022/01/25 11:28:19;;;;;;;63.00;37.88;;;;;;;5.74;68.48;102937.28;5005661;28;20543;-84
2022/01/25 11:30:50;;;;;;;65.50;37.53;;;;;;;6.07;68.30;102992.50;5004629;28;20049;-83
2022/01/25 11:33:19;;;;;;;63.08;37.70;;;;;;;5.71;68.18;102922.41;5006158;28;20053;-84
2022/01/25 11:35:47;;;;;;;66.15;37.72;;;;;;;5.90;67.93;102951.72;5005006;28;20046;-84
2022/01/25 11:38:14;;;;;;;61.65;36.03;;;;;;;5.99;68.05;102947.94;5002649;28;20077;-84
2022/01/25 11:40:48;;;;;;;68.73;37.53;;;;;;;6.26;67.92;102966.41;5002691;28;20053;-84
2022/01/25 11:43:16;;;;;;;66.90;37.75;;;;;;;6.25;67.80;102954.13;5004492;28;20049;-84
2022/01/25 11:45:48;;;;;;;66.70;38.60;;;;;;;6.24;67.55;102947.13;4988753;28;20136;-82
2022/01/25 11:48:33;;;;;;;61.25;39.20;;;;;;;6.28;67.32;102925.00;5005299;28;20048;-84
2022/01/25 11:51:04;;;;;;;73.22;40.95;;;;;;;5.13;67.06;102745.13;5004960;28;20103;-83
2022/01/25 11:53:39;;;;;;;68.93;39.15;;;;;;;6.40;66.97;102956.25;5005026;28;20050;-83
2022/01/25 11:56:10;;;;;;;57.33;36.05;;;;;;;6.53;66.79;102949.66;5004834;28;20136;-83
2022/01/25 11:58:37;;;;;;;65.05;37.97;;;;;;;6.50;66.89;102964.72;5003903;28;20050;-82
2022/01/25 12:01:16;;;;;;;56.93;36.77;;;;;;;6.45;66.50;102962.22;5009904;28;20143;-83
2022/01/25 12:03:56;;;;;;;63.70;36.67;;;;;;;6.43;66.51;102927.13;4988440;28;20089;-83
2022/01/25 12:06:30;;;;;;;66.35;39.97;;;;;;;6.48;66.28;102914.66;5007796;28;20069;-82
2022/01/25 12:09:41;;;;;;;62.70;37.47;;;;;;;6.22;66.46;102893.59;5002839;28;20068;-84
2022/01/25 12:12:10;;;;;;;69.90;40.03;;;;;;;6.51;66.71;102937.44;5005876;28;20258;-82
2022/01/25 12:14:47;;;;;;;60.50;36.90;;;;;;;6.17;66.40;102865.56;5004193;28;20487;-82
2022/01/25 12:17:26;;;;;;;60.80;37.67;;;;;;;6.62;66.30;102933.47;5004687;28;20531;-83
2022/01/25 12:20:03;;;;;;;62.03;38.53;;;;;;;6.59;65.92;102922.19;5007608;28;20057;-82
2022/01/25 12:22:41;;;;;;;59.55;37.25;;;;;;;6.62;66.28;102920.28;5007434;28;20042;-82
2022/01/25 12:28:07;;;;;;;58.10;35.03;;;;;;;6.59;65.96;102901.91;5009261;28;20064;-83
2022/01/25 12:30:41;;;;;;;64.80;37.80;;;;;;;6.51;66.36;102897.84;5019666;28;20160;-84
2022/01/25 12:33:19;;;;;;;54.92;34.72;;;;;;;6.45;65.84;102872.50;5029707;28;20132;-82
2022/01/25 12:36:03;;;;;;;57.78;34.80;;;;;;;6.59;66.01;102891.38;5016663;28;20217;-83
2022/01/25 12:38:29;;;;;;;55.90;35.60;;;;;;;5.25;65.72;102685.94;5027054;28;20062;-82
2022/01/25 12:41:01;;;;;;;52.72;33.58;;;;;;;6.51;66.03;102889.94;5006932;28;20400;-83
2022/01/25 12:43:30;;;;;;;65.63;37.75;;;;;;;5.67;65.92;102746.84;5008090;28;20116;-83
2022/01/25 12:46:01;;;;;;;57.72;35.80;;;;;;;6.47;66.08;102881.25;5010142;28;20135;-84
2022/01/25 12:48:34;;;;;;;57.67;36.28;;;;;;;6.44;66.41;102857.63;5008470;28;20066;-84
2022/01/25 12:51:12;;;;;;;54.97;34.08;;;;;;;6.05;66.37;102789.53;5010190;28;20366;-83
2022/01/25 12:53:41;;;;;;;62.88;37.63;;;;;;;6.37;66.43;102842.91;5009819;28;20081;-83
2022/01/25 12:56:14;;;;;;;59.70;36.20;;;;;;;6.47;66.40;102839.03;5010842;28;20433;-83
2022/01/25 12:58:41;;;;;;;60.95;36.40;;;;;;;6.57;66.42;102872.09;5009698;28;20133;-83
2022/01/25 13:01:14;;;;;;;66.63;37.47;;;;;;;6.43;66.32;102842.69;5008268;28;20058;-83
2022/01/25 13:03:45;;;;;;;65.28;36.85;;;;;;;6.37;66.73;102822.66;5008237;28;20132;-83
2022/01/25 13:06:13;;;;;;;60.57;38.00;;;;;;;6.03;66.28;102780.81;5010273;28;20308;-83
2022/01/25 13:08:55;;;;;;;62.35;36.38;;;;;;;6.08;65.86;102778.88;5012319;28;20125;-84
2022/01/25 13:11:41;;;;;;;63.08;36.78;;;;;;;6.41;66.91;102865.66;4991843;28;20662;-83
2022/01/25 13:16:49;;;;;;;61.17;36.63;;;;;;;6.18;67.15;102835.63;4993050;28;20051;-83
2022/01/25 13:19:26;;;;;;;66.10;38.40;;;;;;;6.19;67.24;102829.47;4987035;28;20136;-80
2022/01/25 13:22:00;;;;;;;61.20;38.97;;;;;;;6.49;66.77;102853.03;4988289;28;20051;-83
2022/01/25 13:24:43;;;;;;;62.78;38.17;;;;;;;6.42;66.62;102851.53;4988203;28;20050;-83
2022/01/25 13:27:14;;;;;;;61.25;38.58;;;;;;;6.22;67.47;102832.91;4988282;28;20054;-83
2022/01/25 13:32:38;;;;;;;66.88;39.22;;;;;;;4.69;67.20;102571.09;5027835;28;20073;-81
2022/01/25 13:35:13;;;;;;;62.92;38.90;;;;;;;5.94;67.52;102768.78;5027486;28;20139;-81
2022/01/25 13:37:41;;;;;;;60.25;36.25;;;;;;;6.46;67.00;102842.59;5024131;28;20058;-83
2022/01/25 13:40:09;;;;;;;54.30;37.17;;;;;;;6.42;67.36;102840.97;5007214;28;20061;-82
2022/01/25 13:42:56;;;;;;;56.80;36.00;;;;;;;6.31;67.08;102815.00;5007629;28;20058;-82
2022/01/25 13:48:13;;;;;;;63.30;37.75;;;;;;;6.07;66.77;102784.19;5009429;28;20505;-83
2022/01/25 13:50:41;;;;;;;55.17;35.35;;;;;;;6.23;66.61;102784.50;5009283;28;20052;-82
2022/01/25 13:53:08;;;;;;;54.47;33.90;;;;;;;5.41;66.85;102663.41;5008978;28;20141;-80
2022/01/25 13:55:36;;;;;;;56.40;33.58;;;;;;;6.32;67.12;102824.59;5007230;28;20058;-84
2022/01/25 13:58:19;;;;;;;58.92;35.33;;;;;;;5.49;67.52;102707.97;5006785;28;20084;-82